South Trader — D7SA — position and weather

sailwx.info

Track history (hours):
 
Tides and Currents Weather Stations Pressure Air Temp Water Temp Dewpoint Dewpoint Depression Visibility Wind Speed Wind Dir Waves Ship Positions

South Trader

Last reported at 2018-Jul-10 18:20 UTC. Time now 2018-Jul-19 19:26 UTC.
Position N 34°14' E 134°59'.
Warning: this ship's position is 9 days out of date.

Length 292 m; draft 9.8 m.

Type: Cargo ship. MMSI: 440380000.

Date/timePositionNaut miles runAvg speedWind from/ knotsBaromVisibWave heightAir tempDewpointWater temp
2018-Jul-10 18:20N 34°14' E 134°59'413.5
2018-Jul-10 18:00N 34°19' E 134°59'713.6
2018-Jul-10 17:30N 34°25' E 135°01'713.4
2018-Jul-10 17:00N 34°32' E 135°03'1010.3
2018-Jul-10 16:00N 34°34' E 134°51'714.1
2018-Jul-10 15:29N 34°31' E 134°43'713.9
2018-Jul-10 14:59N 34°28' E 134°35'  
2018-Jul-06 23:55N 34°27' E 134°27'614.0
2018-Jul-06 23:30N 34°29' E 134°34'713.5
2018-Jul-06 23:00N 34°31' E 134°41'713.1
2018-Jul-06 22:30N 34°34' E 134°49'1112.0
2018-Jul-06 21:35N 34°37' E 135°01'212.8
2018-Jul-06 21:27N 34°36' E 135°03'511.5
2018-Jul-06 21:00N 34°31' E 135°04'714.5
2018-Jul-06 20:30N 34°24' E 135°03'714.9
2018-Jul-06 20:00N 34°17' E 134°59'815.0
2018-Jul-06 19:30N 34°10' E 134°59'815.2
2018-Jul-06 19:00N 34°02' E 134°59'914.7
2018-Jul-06 18:24N 33°53' E 134°59'  
2018-Jul-01 20:02N 34°07' E 134°58'012.4
2018-Jul-01 20:00N 34°07' E 134°58'913.6
2018-Jul-01 19:22N 34°16' E 134°59'513.1
2018-Jul-01 19:00N 34°20' E 134°59'713.4
2018-Jul-01 18:30N 34°27' E 135°01'713.9
2018-Jul-01 17:58N 34°34' E 135°04'1611.4
2018-Jul-01 16:33N 34°32' E 134°44'112.7
2018-Jul-01 16:28N 34°31' E 134°43'813.2
2018-Jul-01 15:54N 34°28' E 134°35'  
Track history (hours):
 
Tides and Currents Weather Stations Pressure Air Temp Water Temp Dewpoint Dewpoint Depression Visibility Wind Speed Wind Dir Waves Ship Positions

South Trader

Last reported at 2018-Jul-10 18:20 UTC. Time now 2018-Jul-19 19:26 UTC.
Position N 34°14' E 134°59'.
Warning: this ship's position is 9 days out of date.

Length 292 m; draft 9.8 m.

Type: Cargo ship. MMSI: 440380000.

Date/timePositionNaut miles runAvg speedWind from/ knotsBaromVisibWave heightAir tempDewpointWater temp
2018-Jul-10 18:20N 34°14' E 134°59'413.5
2018-Jul-10 18:00N 34°19' E 134°59'713.6
2018-Jul-10 17:30N 34°25' E 135°01'713.4
2018-Jul-10 17:00N 34°32' E 135°03'1010.3
2018-Jul-10 16:00N 34°34' E 134°51'714.1
2018-Jul-10 15:29N 34°31' E 134°43'713.9
2018-Jul-10 14:59N 34°28' E 134°35'  
2018-Jul-06 23:55N 34°27' E 134°27'614.0
2018-Jul-06 23:30N 34°29' E 134°34'713.5
2018-Jul-06 23:00N 34°31' E 134°41'713.1
2018-Jul-06 22:30N 34°34' E 134°49'1112.0
2018-Jul-06 21:35N 34°37' E 135°01'212.8
2018-Jul-06 21:27N 34°36' E 135°03'511.5
2018-Jul-06 21:00N 34°31' E 135°04'714.5
2018-Jul-06 20:30N 34°24' E 135°03'714.9
2018-Jul-06 20:00N 34°17' E 134°59'815.0
2018-Jul-06 19:30N 34°10' E 134°59'815.2
2018-Jul-06 19:00N 34°02' E 134°59'914.7
2018-Jul-06 18:24N 33°53' E 134°59'  
2018-Jul-01 20:02N 34°07' E 134°58'012.4
2018-Jul-01 20:00N 34°07' E 134°58'913.6
2018-Jul-01 19:22N 34°16' E 134°59'513.1
2018-Jul-01 19:00N 34°20' E 134°59'713.4
2018-Jul-01 18:30N 34°27' E 135°01'713.9
2018-Jul-01 17:58N 34°34' E 135°04'1611.4
2018-Jul-01 16:33N 34°32' E 134°44'112.7
2018-Jul-01 16:28N 34°31' E 134°43'813.2
2018-Jul-01 15:54N 34°28' E 134°35'  

Dump ship's entire track history